Aeroporto :
LOGIN :

Iscrizione | Disclaimer

   EN    FR    IT 

 










Sommario :    VFR   VFR Marginale   IFR   IFR Intensivo   IFR Molto Intensivo
Visibilità : 
Base nubi : 
>= 8 km
>= 3000ft
5 / 8 km
1000 / 3000 ft
1500m / 5 km
500 / 1000 ft
800 / 1500m
200 / 500 ft
< 800m
< 200 ft
Simboli :   Temporali  Nebbia  Neve Forte  Precipitazioni Forti  Vento > 20 kt
SIGMETs :   Varie  Temporali  Ghiacco  Turbolenza  Onda orograficha  Ceneri Vulcaniche






- Altitudine del aeroporto : 53 ft
- Codice IATA : HAM


EDDH - Hamburg

ULTIMO METAR :
  • 121120Z 20015KT 9999 BKN025 07/02 Q1001 NOSIG

METARs OBSOLETI :
  • 121050Z 19012KT 9999 BKN022 SCT029 07/02 Q1001 NOSIG
  • 121020Z 19013KT 9999 FEW021 BKN031 07/02 Q1001 TEMPO 18015G25KT
  • 120950Z 18015KT 9999 SCT021 BKN033 07/02 Q1001 TEMPO 18015G25KT
  • 120920Z 18016KT 9999 SCT022 BKN030 06/02 Q1001 TEMPO 18015G25KT
  • 120850Z 18016KT 9999 SCT020 BKN029 06/02 Q1001 TEMPO 18015G25KT

TAF TAF EDDH
Valido dal 12 a 06 ore il 13 a 12 ore UTC


120500Z 1206/1312 18012KT 9999 SCT040
PROB30
TEMPO 1211/1215 20015G25KT
BECMG 1216/1218 16007KT



MetMap, La meteo Aeronautica in un colpo d'occhio ! - Copyright ORBIFLY Dicembre 2007 - Disclaimer

ORBIFLY MET'MAP TEAM :

Programmazione e sviluppo : Alexandra Zaïnal
Concezione e sviluppo : Baudouin d'Aumeries
Co-Programmazione e sviluppo : Marc-Olivier Méhu
Supporto tecnico e logistico : Manuel Goepfert
Aiuto per la traduzione : Arnaldo La Scala

Contatto : metmap@orbifly.com




FONTI E CREDITI :

   NOAA